Time;durP1;ratioP1;P1;durP2;ratioP2;P2;SDS_P1;SDS_P2;PMS_P1;PMS_P2;Temp;Humidity;BMP_temperature;BMP_pressure;BME280_temperature;BME280_humidity;BME280_pressure;Samples;Min_cycle;Max_cycle;Signal;HPM_P1;HPM_P2
2022/10/08 00:00:57;;;;;;;13.40;7.90;;;9.60;99.90;;;;;;4332035;28;10000036;-70
2022/10/08 00:03:25;;;;;;;13.75;7.57;;;9.60;99.90;;;;;;5024331;28;20345;-70
2022/10/08 00:06:18;;;;;;;16.40;9.07;;;9.60;99.90;;;;;;5030125;28;20421;-70
2022/10/08 00:08:52;;;;;;;13.80;8.27;;;9.60;99.90;;;;;;5025694;28;20033;-70
2022/10/08 00:11:21;;;;;;;12.65;8.07;;;9.50;99.90;;;;;;5026787;28;20029;-70
2022/10/08 00:13:49;;;;;;;11.77;7.32;;;9.50;99.90;;;;;;5027816;28;20432;-70
2022/10/08 00:16:35;;;;;;;9.13;6.47;;;9.50;99.90;;;;;;5027608;28;20020;-70
2022/10/08 00:19:11;;;;;;;11.32;8.00;;;9.40;99.90;;;;;;5029179;28;20156;-70
2022/10/08 00:21:38;;;;;;;16.60;8.13;;;9.40;99.90;;;;;;5028230;28;20042;-70
2022/10/08 00:24:06;;;;;;;14.38;8.13;;;9.40;99.90;;;;;;5027525;28;20600;-70
2022/10/08 00:26:34;;;;;;;10.20;7.20;;;9.40;99.90;;;;;;5025481;28;20697;-70
2022/10/08 00:29:02;;;;;;;9.63;6.95;;;9.40;99.90;;;;;;5034337;28;20509;-70
2022/10/08 00:31:37;;;;;;;11.43;7.32;;;9.30;99.90;;;;;;5030038;28;20048;-70
2022/10/08 00:34:06;;;;;;;10.23;7.40;;;9.30;99.90;;;;;;5027892;28;20459;-70
2022/10/08 00:36:34;;;;;;;10.73;7.32;;;9.30;99.90;;;;;;5032746;28;20104;-70
2022/10/08 00:39:12;;;;;;;13.90;8.30;;;9.30;99.90;;;;;;5023941;28;20033;-70
2022/10/08 00:41:39;;;;;;;13.32;8.50;;;9.20;99.90;;;;;;5023345;28;20059;-69
2022/10/08 00:44:42;;;;;;;12.40;8.52;;;9.20;99.90;;;;;;5025496;28;20017;-69
2022/10/08 00:47:18;;;;;;;13.68;8.23;;;9.20;99.90;;;;;;5024765;28;20047;-70
2022/10/08 00:49:47;;;;;;;12.77;7.50;;;9.20;99.90;;;;;;5026903;28;20140;-70
2022/10/08 00:52:13;;;;;;;10.85;7.60;;;9.20;99.90;;;;;;5031213;28;20508;-70
2022/10/08 00:54:39;;;;;;;14.07;8.57;;;9.20;99.90;;;;;;5032721;28;20025;-70
2022/10/08 00:57:05;;;;;;;14.68;8.60;;;9.10;99.90;;;;;;5032459;28;20021;-70
2022/10/08 00:59:30;;;;;;;16.42;9.30;;;9.10;99.90;;;;;;5019997;28;20033;-70
2022/10/08 01:01:56;;;;;;;14.88;9.25;;;9.10;99.90;;;;;;5026753;28;20137;-70
2022/10/08 01:04:23;;;;;;;19.75;9.73;;;9.10;99.90;;;;;;5037700;28;20020;-70
2022/10/08 01:07:19;;;;;;;14.30;8.60;;;9.10;99.90;;;;;;5027039;28;20044;-69
2022/10/08 01:09:50;;;;;;;17.38;8.63;;;9.10;99.90;;;;;;5030809;28;20486;-70
2022/10/08 01:12:28;;;;;;;18.50;9.70;;;9.10;99.90;;;;;;5027641;28;20466;-70
2022/10/08 01:15:14;;;;;;;17.70;9.45;;;9.10;99.90;;;;;;5022524;28;20022;-69
2022/10/08 01:18:09;;;;;;;19.80;10.13;;;9.20;99.90;;;;;;5029364;28;20432;-70
2022/10/08 01:21:08;;;;;;;16.77;9.63;;;9.20;99.90;;;;;;5021554;28;20069;-70
2022/10/08 01:23:56;;;;;;;19.05;11.20;;;9.10;99.90;;;;;;5030365;28;20045;-70
2022/10/08 01:26:27;;;;;;;20.27;11.02;;;9.20;99.90;;;;;;5031535;28;20132;-70
2022/10/08 01:29:10;;;;;;;17.48;9.57;;;9.20;99.90;;;;;;5029136;28;20033;-70
2022/10/08 01:31:42;;;;;;;18.05;10.77;;;9.20;99.90;;;;;;5022914;28;20069;-70
2022/10/08 01:34:36;;;;;;;20.17;9.93;;;9.20;99.90;;;;;;5024742;28;20045;-70
2022/10/08 01:37:04;;;;;;;16.85;9.55;;;9.10;99.90;;;;;;5027830;28;20163;-70
2022/10/08 01:39:33;;;;;;;18.08;9.50;;;9.10;99.90;;;;;;5020478;28;20037;-70
2022/10/08 01:42:02;;;;;;;18.40;9.85;;;9.10;99.90;;;;;;5019443;28;20140;-70
2022/10/08 01:44:33;;;;;;;12.68;8.77;;;9.00;99.90;;;;;;5024680;28;20048;-70
2022/10/08 01:47:02;;;;;;;16.73;9.27;;;9.00;99.90;;;;;;5025440;28;20494;-69
2022/10/08 01:49:35;;;;;;;11.55;8.07;;;8.90;99.90;;;;;;5022628;28;20104;-70
2022/10/08 01:52:07;;;;;;;11.73;8.02;;;8.90;99.90;;;;;;5028993;28;20033;-70
2022/10/08 01:54:34;;;;;;;14.20;8.35;;;8.90;99.90;;;;;;5019646;28;20501;-70
2022/10/08 01:57:04;;;;;;;16.02;8.73;;;8.90;99.90;;;;;;5020555;28;20040;-70
2022/10/08 01:59:37;;;;;;;13.40;8.18;;;8.90;99.90;;;;;;5020472;28;20029;-69
2022/10/08 02:02:23;;;;;;;12.10;8.05;;;8.80;99.90;;;;;;5034457;28;20025;-70
2022/10/08 02:04:50;;;;;;;16.20;8.63;;;8.80;99.90;;;;;;5026696;28;20409;-70
2022/10/08 02:07:22;;;;;;;13.20;8.30;;;8.80;99.90;;;;;;5030062;28;20562;-70
2022/10/08 02:09:59;;;;;;;17.37;10.23;;;8.80;99.90;;;;;;5025239;28;20781;-70
2022/10/08 02:12:25;;;;;;;34.25;17.85;;;8.70;99.90;;;;;;5024004;28;20044;-69
2022/10/08 02:14:53;;;;;;;36.03;19.60;;;8.70;99.90;;;;;;5019682;28;20034;-70
2022/10/08 02:17:31;;;;;;;36.35;17.95;;;8.60;99.90;;;;;;5022341;28;20059;-70
2022/10/08 02:20:19;;;;;;;28.52;15.43;;;8.60;99.90;;;;;;5016439;28;20021;-70
2022/10/08 02:23:15;;;;;;;31.52;16.35;;;8.60;99.90;;;;;;5018409;28;20061;-69
2022/10/08 02:25:43;;;;;;;18.27;11.07;;;8.60;99.90;;;;;;5027062;28;20040;-70
2022/10/08 02:28:09;;;;;;;16.13;9.73;;;8.50;99.90;;;;;;5028989;28;20049;-69
2022/10/08 02:30:45;;;;;;;13.18;8.90;;;8.50;99.90;;;;;;5020271;28;20029;-70
2022/10/08 02:33:20;;;;;;;13.07;7.72;;;8.50;99.90;;;;;;5024615;28;20033;-70
2022/10/08 02:35:50;;;;;;;19.77;8.65;;;8.50;99.90;;;;;;5023182;28;20210;-70
2022/10/08 02:38:26;;;;;;;15.90;9.05;;;8.50;99.90;;;;;;5030631;28;20060;-69
2022/10/08 02:40:56;;;;;;;16.73;9.40;;;8.50;99.90;;;;;;5026600;28;20037;-69
2022/10/08 02:43:27;;;;;;;13.48;8.23;;;8.50;99.90;;;;;;5026484;28;20107;-70
2022/10/08 02:46:16;;;;;;;13.45;7.88;;;8.40;99.90;;;;;;5021134;28;20030;-70
2022/10/08 02:48:53;;;;;;;11.23;7.78;;;8.40;99.90;;;;;;5021073;28;20429;-69
2022/10/08 02:51:20;;;;;;;20.88;9.75;;;8.50;99.90;;;;;;5016797;28;20036;-70
2022/10/08 02:53:48;;;;;;;15.45;9.13;;;8.40;99.90;;;;;;5019311;28;20502;-70
2022/10/08 02:56:16;;;;;;;15.60;9.07;;;8.40;99.90;;;;;;5025944;28;20032;-70
2022/10/08 02:58:43;;;;;;;13.48;8.73;;;8.30;99.90;;;;;;5028158;28;20032;-70
2022/10/08 03:01:17;;;;;;;15.18;9.65;;;8.30;99.90;;;;;;5029139;28;20447;-70
2022/10/08 03:03:52;;;;;;;14.98;8.90;;;8.30;99.90;;;;;;5028475;28;20352;-69
2022/10/08 03:06:18;;;;;;;20.33;9.07;;;8.30;99.90;;;;;;5024069;28;20065;-70
2022/10/08 03:08:48;;;;;;;19.20;10.07;;;8.30;99.90;;;;;;5028636;28;20147;-70
2022/10/08 03:11:14;;;;;;;20.05;9.27;;;8.30;99.90;;;;;;5026334;28;20100;-70
2022/10/08 03:13:43;;;;;;;23.80;9.52;;;8.30;99.90;;;;;;5036013;28;20107;-70
2022/10/08 03:16:14;;;;;;;18.90;9.13;;;8.30;99.90;;;;;;5029541;28;20344;-69
2022/10/08 03:18:40;;;;;;;21.60;8.75;;;8.40;99.90;;;;;;5030245;28;20025;-70
2022/10/08 03:21:08;;;;;;;16.92;8.95;;;8.40;99.90;;;;;;5031453;28;20061;-70
2022/10/08 03:23:34;;;;;;;21.30;11.65;;;8.40;99.90;;;;;;5029272;28;20056;-69
2022/10/08 03:26:00;;;;;;;22.00;11.80;;;8.40;99.90;;;;;;5031342;28;20426;-70
2022/10/08 03:28:25;;;;;;;17.50;10.43;;;8.30;99.90;;;;;;5035340;28;20041;-70
2022/10/08 03:30:51;;;;;;;16.20;9.70;;;8.30;99.90;;;;;;5031569;28;20029;-70
2022/10/08 03:33:17;;;;;;;14.23;9.23;;;8.30;99.90;;;;;;5028410;28;20068;-70
2022/10/08 03:35:46;;;;;;;17.02;8.52;;;8.20;99.90;;;;;;5032299;28;20031;-70
2022/10/08 03:38:16;;;;;;;13.15;8.82;;;8.20;99.90;;;;;;5029273;28;20017;-70
2022/10/08 03:40:43;;;;;;;15.60;7.85;;;8.20;99.90;;;;;;5030481;28;20021;-70
2022/10/08 03:43:09;;;;;;;16.63;8.68;;;8.10;99.90;;;;;;5027708;28;20056;-70
2022/10/08 03:45:34;;;;;;;14.38;9.57;;;8.10;99.90;;;;;;5027764;28;20445;-70
2022/10/08 03:48:00;;;;;;;13.32;8.73;;;8.10;99.90;;;;;;5026613;28;20110;-70
2022/10/08 03:50:26;;;;;;;13.82;8.35;;;8.10;99.90;;;;;;5032541;28;20029;-71
2022/10/08 03:52:51;;;;;;;19.73;9.20;;;8.10;99.90;;;;;;5031513;28;20140;-70
2022/10/08 03:55:17;;;;;;;16.95;9.65;;;8.10;99.90;;;;;;5029313;28;20088;-70
2022/10/08 03:57:43;;;;;;;19.35;8.80;;;8.10;99.90;;;;;;5026350;28;20291;-70
2022/10/08 04:00:09;;;;;;;15.18;8.10;;;8.10;99.90;;;;;;5032478;28;20106;-70
2022/10/08 04:02:34;;;;;;;16.88;8.80;;;8.10;99.90;;;;;;5036308;28;20040;-70
2022/10/08 04:05:00;;;;;;;13.90;8.55;;;8.00;99.90;;;;;;5023343;28;20037;-70
2022/10/08 04:07:26;;;;;;;17.10;8.43;;;8.00;99.90;;;;;;5026942;28;20039;-70
2022/10/08 04:09:52;;;;;;;19.85;8.32;;;8.00;99.90;;;;;;5028947;28;20509;-70
2022/10/08 04:12:17;;;;;;;24.35;8.65;;;8.00;99.90;;;;;;5029326;28;20133;-70
2022/10/08 04:14:43;;;;;;;22.20;8.68;;;8.10;99.90;;;;;;5027262;28;20080;-70
2022/10/08 04:17:09;;;;;;;22.70;8.07;;;8.10;99.90;;;;;;5026591;28;20025;-70
2022/10/08 04:19:34;;;;;;;18.63;8.30;;;8.10;99.90;;;;;;5022549;28;20060;-70
2022/10/08 04:22:00;;;;;;;15.70;7.10;;;8.10;99.90;;;;;;5029348;28;20044;-70
2022/10/08 04:24:25;;;;;;;14.93;7.93;;;8.10;99.90;;;;;;5023116;28;20036;-69
2022/10/08 04:26:51;;;;;;;18.83;8.98;;;8.00;99.90;;;;;;5025481;28;20369;-70
2022/10/08 04:29:17;;;;;;;19.13;8.75;;;8.00;99.90;;;;;;5032327;28;20041;-70
2022/10/08 04:31:42;;;;;;;17.27;7.93;;;8.00;99.90;;;;;;5026748;28;20032;-70
2022/10/08 04:34:10;;;;;;;14.88;7.68;;;7.90;99.90;;;;;;5028949;28;20394;-70
2022/10/08 04:36:35;;;;;;;15.98;8.10;;;8.00;99.90;;;;;;5026703;28;20029;-70
2022/10/08 04:39:01;;;;;;;19.67;8.00;;;7.90;99.90;;;;;;5026001;28;20051;-70
2022/10/08 04:41:27;;;;;;;17.23;8.77;;;7.90;99.90;;;;;;5028893;28;20030;-70
2022/10/08 04:43:56;;;;;;;17.98;8.98;;;7.90;99.90;;;;;;5029707;28;20182;-70
2022/10/08 04:46:22;;;;;;;19.48;8.65;;;7.90;99.90;;;;;;5027263;28;20032;-70
2022/10/08 04:48:55;;;;;;;16.27;9.07;;;7.90;99.90;;;;;;5028731;28;20029;-70
2022/10/08 04:51:23;;;;;;;20.13;9.13;;;7.90;99.90;;;;;;5021458;28;21005;-70
2022/10/08 04:53:49;;;;;;;22.63;8.73;;;7.80;99.90;;;;;;5025680;28;20052;-70
2022/10/08 04:56:21;;;;;;;16.45;8.95;;;7.80;99.90;;;;;;5025991;28;20025;-70
2022/10/08 04:58:47;;;;;;;22.83;9.30;;;7.80;99.90;;;;;;5023442;28;20025;-70
2022/10/08 05:01:16;;;;;;;25.08;8.90;;;7.80;99.90;;;;;;5026771;28;20033;-70
2022/10/08 05:03:45;;;;;;;20.42;10.02;;;7.80;99.90;;;;;;5029016;28;20018;-70
2022/10/08 05:06:11;;;;;;;24.73;9.93;;;7.80;99.90;;;;;;5023780;28;20024;-70
2022/10/08 05:08:38;;;;;;;18.75;9.35;;;7.80;99.90;;;;;;5027356;28;20397;-70
2022/10/08 05:11:04;;;;;;;24.05;10.18;;;7.70;99.90;;;;;;5028854;28;20117;-70
2022/10/08 05:13:29;;;;;;;20.45;9.75;;;7.70;99.90;;;;;;5028930;28;20626;-70
2022/10/08 05:15:55;;;;;;;16.02;9.68;;;7.70;99.90;;;;;;5027231;28;20033;-70
2022/10/08 05:18:21;;;;;;;19.90;10.32;;;7.70;99.90;;;;;;5024572;28;20079;-70
2022/10/08 05:20:47;;;;;;;22.40;10.32;;;7.70;99.90;;;;;;5024652;28;20108;-70
2022/10/08 05:23:13;;;;;;;17.10;9.27;;;7.70;99.90;;;;;;5023339;28;20036;-70
2022/10/08 05:25:38;;;;;;;21.80;9.55;;;7.70;99.90;;;;;;5028857;28;20029;-70
2022/10/08 05:28:04;;;;;;;21.55;9.00;;;7.80;99.90;;;;;;5024291;28;20426;-70
2022/10/08 05:30:30;;;;;;;17.73;9.27;;;7.80;99.90;;;;;;5027654;28;20107;-69
2022/10/08 05:32:55;;;;;;;22.35;9.30;;;7.80;99.90;;;;;;5023782;28;20041;-70
2022/10/08 05:35:21;;;;;;;22.27;9.50;;;7.80;99.90;;;;;;5026252;28;20024;-69
2022/10/08 05:37:47;;;;;;;21.65;9.57;;;7.80;99.90;;;;;;5030338;28;20025;-70
2022/10/08 05:40:12;;;;;;;28.63;13.60;;;7.80;99.90;;;;;;5022005;28;20020;-70
2022/10/08 05:42:38;;;;;;;25.50;11.40;;;7.80;99.90;;;;;;5019376;28;20025;-70
2022/10/08 05:45:04;;;;;;;25.70;12.15;;;7.90;99.90;;;;;;5017377;28;20181;-69
2022/10/08 05:47:30;;;;;;;23.35;11.07;;;8.00;99.90;;;;;;5027016;28;20032;-70
2022/10/08 05:49:55;;;;;;;21.65;11.02;;;8.10;99.90;;;;;;5026549;28;20025;-70
2022/10/08 05:52:21;;;;;;;20.27;10.60;;;8.10;99.90;;;;;;5025231;28;20081;-70
2022/10/08 05:54:46;;;;;;;16.33;10.05;;;8.10;99.90;;;;;;5029619;28;20024;-70
2022/10/08 05:57:12;;;;;;;18.55;9.75;;;8.10;99.90;;;;;;5025339;28;20041;-70
2022/10/08 05:59:37;;;;;;;19.15;10.10;;;8.20;99.90;;;;;;5032241;28;20106;-70
2022/10/08 06:02:03;;;;;;;25.90;11.48;;;8.20;99.90;;;;;;5017729;28;20563;-70
2022/10/08 06:04:29;;;;;;;22.75;9.52;;;8.10;99.90;;;;;;5031586;28;20086;-70
2022/10/08 06:06:54;;;;;;;19.40;8.40;;;8.20;99.90;;;;;;5025768;28;20032;-71
2022/10/08 06:09:20;;;;;;;17.42;8.23;;;8.20;99.90;;;;;;5015138;28;20052;-70
2022/10/08 06:11:47;;;;;;;22.98;7.97;;;8.10;99.90;;;;;;5022395;28;20500;-70
2022/10/08 06:14:15;;;;;;;17.83;7.78;;;8.10;99.90;;;;;;5027866;28;20068;-70
2022/10/08 06:16:41;;;;;;;28.25;9.27;;;8.10;99.90;;;;;;5019748;28;20095;-70
2022/10/08 06:19:08;;;;;;;28.27;14.82;;;8.20;99.90;;;;;;5021512;28;20473;-69
2022/10/08 06:21:34;;;;;;;18.83;10.38;;;8.20;99.90;;;;;;5019634;28;20029;-70
2022/10/08 06:24:06;;;;;;;22.33;10.60;;;8.20;99.90;;;;;;5035869;28;20132;-70
2022/10/08 06:26:37;;;;;;;19.35;8.30;;;8.30;99.90;;;;;;5029368;28;20029;-70
2022/10/08 06:29:04;;;;;;;24.90;14.70;;;8.30;99.90;;;;;;5034599;28;20325;-70
2022/10/08 06:31:30;;;;;;;20.85;9.70;;;8.40;99.90;;;;;;5037678;28;20037;-70
2022/10/08 06:33:57;;;;;;;20.90;8.77;;;8.50;99.90;;;;;;5041045;28;20024;-70
2022/10/08 06:36:26;;;;;;;21.88;8.63;;;8.60;99.90;;;;;;5042171;28;20028;-71
2022/10/08 06:38:57;;;;;;;21.38;9.70;;;8.70;99.90;;;;;;5034553;28;20056;-70
2022/10/08 06:41:24;;;;;;;27.77;16.85;;;8.80;99.90;;;;;;5030725;28;20108;-70
2022/10/08 06:43:50;;;;;;;23.88;12.57;;;8.80;99.90;;;;;;5047348;28;20027;-70
2022/10/08 06:46:17;;;;;;;32.55;22.40;;;8.80;99.90;;;;;;5031061;28;20090;-70
2022/10/08 06:48:43;;;;;;;22.75;14.82;;;8.80;99.90;;;;;;5030919;28;20025;-70
2022/10/08 06:51:12;;;;;;;24.45;12.27;;;8.80;99.90;;;;;;5029911;28;20033;-70
2022/10/08 06:53:39;;;;;;;17.88;9.70;;;8.80;99.90;;;;;;5032925;28;20034;-70
2022/10/08 06:56:09;;;;;;;17.70;7.57;;;8.80;99.90;;;;;;5030216;28;20029;-70
2022/10/08 06:58:35;;;;;;;14.63;7.07;;;8.90;99.90;;;;;;5031776;28;20061;-70
2022/10/08 07:01:04;;;;;;;21.45;10.75;;;9.00;99.90;;;;;;5025436;28;20025;-70
2022/10/08 07:03:29;;;;;;;16.13;8.20;;;9.10;99.90;;;;;;5030962;28;20063;-70
2022/10/08 07:05:58;;;;;;;20.77;10.20;;;9.10;99.90;;;;;;5028292;28;20560;-70
2022/10/08 07:08:23;;;;;;;17.48;9.82;;;9.20;99.90;;;;;;5037742;28;20037;-69
2022/10/08 07:10:50;;;;;;;17.58;8.82;;;9.30;99.90;;;;;;5032065;28;20036;-70
2022/10/08 07:13:15;;;;;;;19.30;9.52;;;9.40;99.90;;;;;;5025267;28;20098;-70
2022/10/08 07:15:41;;;;;;;19.48;8.65;;;9.50;99.90;;;;;;5027188;28;20033;-70
2022/10/08 07:18:10;;;;;;;14.82;8.52;;;9.60;99.90;;;;;;5023712;28;20474;-70
2022/10/08 07:20:36;;;;;;;18.85;9.40;;;9.70;99.90;;;;;;5028238;28;20559;-79
2022/10/08 07:23:01;;;;;;;19.52;8.73;;;9.90;99.90;;;;;;5043904;28;20029;-79
2022/10/08 07:25:27;;;;;;;15.18;8.13;;;10.10;99.90;;;;;;5042214;28;20057;-79
2022/10/08 07:27:53;;;;;;;16.08;6.90;;;10.20;99.90;;;;;;5043510;28;20430;-79
2022/10/08 07:30:18;;;;;;;13.93;7.07;;;10.30;99.90;;;;;;5027092;28;20049;-79
2022/10/08 07:32:44;;;;;;;19.63;9.82;;;10.40;99.90;;;;;;5036974;28;20030;-79
2022/10/08 07:35:10;;;;;;;15.32;8.48;;;10.50;99.90;;;;;;5030902;28;20525;-79
2022/10/08 07:37:35;;;;;;;20.70;10.88;;;10.60;99.90;;;;;;5033035;28;20426;-79
2022/10/08 07:40:01;;;;;;;21.70;11.68;;;10.60;99.90;;;;;;5027891;28;20028;-79
2022/10/08 07:42:26;;;;;;;22.38;8.05;;;10.70;99.90;;;;;;5028645;28;20028;-79
2022/10/08 07:44:52;;;;;;;20.10;6.63;;;10.70;99.90;;;;;;5030533;28;20021;-79
2022/10/08 07:47:18;;;;;;;18.02;7.43;;;10.70;99.90;;;;;;5046927;28;20033;-79
2022/10/08 07:49:43;;;;;;;19.52;7.07;;;10.70;99.90;;;;;;5028419;28;20041;-79
2022/10/08 07:52:09;;;;;;;17.75;6.28;;;10.60;99.90;;;;;;5045818;28;20390;-79
2022/10/08 07:54:34;;;;;;;16.52;5.75;;;10.60;99.90;;;;;;5041889;28;20417;-79
2022/10/08 07:57:01;;;;;;;18.75;6.85;;;10.50;99.90;;;;;;5033123;28;20047;-79
2022/10/08 07:59:27;;;;;;;23.83;8.27;;;10.50;99.90;;;;;;5046071;28;20094;-79
2022/10/08 08:01:53;;;;;;;15.27;8.40;;;10.50;99.90;;;;;;5043943;28;20226;-78
2022/10/08 08:04:18;;;;;;;23.30;8.15;;;10.50;99.90;;;;;;5035099;28;20147;-79
2022/10/08 08:06:47;;;;;;;16.83;6.20;;;10.50;99.90;;;;;;5038184;28;20033;-79
2022/10/08 08:09:13;;;;;;;18.70;7.20;;;10.40;99.90;;;;;;5028058;28;20029;-79
2022/10/08 08:11:39;;;;;;;20.05;7.10;;;10.50;99.90;;;;;;5025184;28;20044;-79
2022/10/08 08:14:06;;;;;;;20.95;8.32;;;10.50;99.90;;;;;;5026815;28;20029;-80
2022/10/08 08:16:31;;;;;;;15.18;8.05;;;10.50;99.90;;;;;;5032196;28;20059;-80
2022/10/08 08:18:59;;;;;;;15.00;6.78;;;10.50;99.90;;;;;;5027992;28;20029;-79
2022/10/08 08:21:31;;;;;;;17.08;9.48;;;10.50;99.90;;;;;;5028115;28;20440;-79
2022/10/08 08:24:02;;;;;;;17.80;7.80;;;10.50;99.90;;;;;;5024157;28;20017;-78
2022/10/08 08:26:31;;;;;;;15.40;6.75;;;10.50;99.90;;;;;;5024666;28;20112;-79
2022/10/08 08:29:02;;;;;;;13.18;6.28;;;10.50;99.90;;;;;;5028263;28;20049;-79
2022/10/08 08:31:33;;;;;;;17.17;6.28;;;10.50;99.90;;;;;;5035407;28;20033;-79
2022/10/08 08:34:07;;;;;;;15.57;8.73;;;10.50;99.90;;;;;;5033026;28;20070;-78
2022/10/08 08:36:39;;;;;;;15.88;9.35;;;10.50;99.90;;;;;;5036265;28;20485;-79
2022/10/08 08:39:06;;;;;;;15.23;6.80;;;10.60;99.90;;;;;;5037315;28;20025;-78
2022/10/08 08:41:50;;;;;;;12.23;6.05;;;10.60;99.90;;;;;;5039102;28;20025;-78
2022/10/08 08:44:16;;;;;;;14.73;6.65;;;10.60;99.90;;;;;;5033805;28;20074;-79
2022/10/08 08:46:49;;;;;;;13.15;5.65;;;10.60;99.90;;;;;;5034563;28;20036;-78
2022/10/08 08:49:23;;;;;;;15.23;4.90;;;10.60;99.90;;;;;;5038181;28;20124;-78
2022/10/08 08:51:49;;;;;;;12.15;4.72;;;10.70;99.90;;;;;;5037669;28;20033;-79
2022/10/08 08:54:15;;;;;;;16.08;4.95;;;10.80;99.90;;;;;;5035850;28;20091;-79
2022/10/08 08:56:41;;;;;;;12.57;4.55;;;10.90;99.90;;;;;;5033858;28;20029;-79
2022/10/08 08:59:21;;;;;;;9.95;4.47;;;11.00;99.90;;;;;;5035237;28;20055;-78
2022/10/08 09:01:48;;;;;;;18.23;7.13;;;11.00;99.90;;;;;;5033346;28;20094;-78
2022/10/08 09:04:28;;;;;;;19.45;10.07;;;11.10;99.90;;;;;;5029392;28;20040;-79
2022/10/08 09:06:57;;;;;;;18.20;7.65;;;11.10;99.90;;;;;;5037537;28;20029;-78
2022/10/08 09:09:36;;;;;;;21.20;7.60;;;11.20;99.90;;;;;;5036726;28;20509;-79
2022/10/08 09:12:20;;;;;;;16.48;7.90;;;11.20;99.90;;;;;;5036443;28;20497;-78
2022/10/08 09:14:56;;;;;;;29.52;10.98;;;11.20;99.90;;;;;;5037174;28;20025;-79
2022/10/08 09:17:35;;;;;;;21.52;9.38;;;11.20;99.90;;;;;;5037396;28;20037;-79
2022/10/08 09:20:01;;;;;;;17.38;9.00;;;11.30;99.90;;;;;;5034043;28;20033;-79
2022/10/08 09:22:38;;;;;;;15.27;8.55;;;11.30;99.90;;;;;;5035542;28;20083;-79
2022/10/08 09:25:21;;;;;;;14.65;8.10;;;11.30;99.90;;;;;;5036277;28;20032;-79
2022/10/08 09:27:47;;;;;;;18.50;6.18;;;11.40;99.90;;;;;;5036455;28;20030;-79
2022/10/08 09:30:30;;;;;;;16.77;6.70;;;11.40;99.90;;;;;;5036232;28;20042;-80
2022/10/08 09:33:20;;;;;;;14.38;6.18;;;11.50;99.90;;;;;;5037323;28;20048;-79
2022/10/08 09:35:49;;;;;;;9.27;5.30;;;11.60;99.90;;;;;;5037068;28;20048;-79
2022/10/08 09:38:31;;;;;;;12.10;5.30;;;11.70;99.90;;;;;;5038079;28;20025;-79
2022/10/08 09:41:15;;;;;;;13.33;5.90;;;11.70;99.90;;;;;;5036554;28;20024;-79
2022/10/08 09:43:41;;;;;;;14.77;5.75;;;11.90;99.90;;;;;;5036225;28;20640;-79
2022/10/08 09:46:27;;;;;;;12.13;3.85;;;12.10;99.90;;;;;;5037037;28;20686;-79
2022/10/08 09:48:52;;;;;;;10.77;4.32;;;12.20;99.90;;;;;;5037744;28;20436;-79
2022/10/08 09:51:18;;;;;;;8.23;2.72;;;12.20;99.90;;;;;;5032184;28;20029;-79
2022/10/08 09:53:58;;;;;;;10.32;3.17;;;12.20;99.90;;;;;;5032827;28;20079;-84
2022/10/08 09:56:29;;;;;;;9.82;3.65;;;12.20;99.90;;;;;;5034068;28;20043;-79
2022/10/08 09:59:01;;;;;;;13.98;3.72;;;12.30;99.90;;;;;;5022961;28;20375;-79
2022/10/08 10:01:30;;;;;;;6.22;2.72;;;12.40;99.90;;;;;;5023023;28;20036;-78
2022/10/08 10:03:57;;;;;;;5.40;2.70;;;12.30;99.90;;;;;;5026779;28;20448;-78
2022/10/08 10:06:39;;;;;;;7.88;3.30;;;12.30;99.90;;;;;;5030971;28;20104;-78
2022/10/08 10:09:23;;;;;;;7.18;3.75;;;12.30;99.90;;;;;;5031455;28;20029;-78
2022/10/08 10:12:11;;;;;;;11.13;5.55;;;12.20;99.90;;;;;;5027726;28;20029;-78
2022/10/08 10:14:44;;;;;;;11.70;4.28;;;12.20;99.90;;;;;;5028937;28;20029;-78
2022/10/08 10:17:40;;;;;;;8.23;3.80;;;12.10;99.90;;;;;;5032173;28;20064;-78
2022/10/08 10:20:33;;;;;;;11.23;3.40;;;12.10;99.90;;;;;;5026314;28;20029;-78
2022/10/08 10:23:16;;;;;;;7.82;3.97;;;12.00;99.90;;;;;;5028494;28;20052;-78
2022/10/08 10:26:04;;;;;;;8.85;3.70;;;12.00;99.90;;;;;;5029924;28;20032;-78
2022/10/08 10:29:10;;;;;;;11.02;4.63;;;12.00;99.90;;;;;;5030429;28;20041;-78
2022/10/08 10:31:45;;;;;;;9.48;4.65;;;12.00;99.90;;;;;;5029217;28;20049;-78
2022/10/08 10:34:16;;;;;;;7.95;3.88;;;12.00;99.90;;;;;;5026400;28;20551;-78
2022/10/08 10:36:48;;;;;;;8.85;3.70;;;12.00;99.90;;;;;;5029867;28;20033;-78
2022/10/08 10:39:32;;;;;;;6.18;3.20;;;12.00;99.90;;;;;;5024888;28;20021;-78
2022/10/08 10:42:13;;;;;;;5.32;2.30;;;12.00;99.90;;;;;;5026248;28;21761;-78
2022/10/08 10:44:53;;;;;;;4.97;2.30;;;12.10;99.90;;;;;;5029182;28;20095;-78
2022/10/08 10:47:27;;;;;;;4.25;2.15;;;12.20;99.90;;;;;;5030025;28;20366;-79
2022/10/08 10:49:53;;;;;;;3.95;2.22;;;12.40;99.90;;;;;;5035078;28;20053;-78
2022/10/08 10:52:47;;;;;;;6.03;2.30;;;12.70;99.90;;;;;;5034323;28;20628;-79
2022/10/08 10:55:33;;;;;;;3.83;1.90;;;13.00;99.90;;;;;;5030755;28;20493;-78
2022/10/08 10:58:43;;;;;;;6.63;2.40;;;13.30;99.90;;;;;;5027647;28;20105;-78
2022/10/08 11:01:43;;;;;;;6.47;2.20;;;13.70;99.90;;;;;;5024991;28;20106;-78
2022/10/08 11:04:38;;;;;;;3.55;2.03;;;13.80;99.90;;;;;;5025075;28;20524;-78
2022/10/08 11:07:29;;;;;;;6.63;2.90;;;13.90;99.90;;;;;;5021887;28;20121;-78
2022/10/08 11:10:17;;;;;;;5.18;2.10;;;14.20;99.90;;;;;;5024505;28;20091;-79
2022/10/08 11:13:13;;;;;;;5.57;2.47;;;14.40;99.90;;;;;;5033739;28;20065;-79
2022/10/08 11:15:50;;;;;;;7.82;2.30;;;14.60;99.90;;;;;;5025873;28;20032;-79
2022/10/08 11:18:22;;;;;;;9.48;2.10;;;14.80;99.90;;;;;;5023889;28;20056;-79
2022/10/08 11:21:09;;;;;;;4.17;2.00;;;15.00;99.90;;;;;;5031470;28;20104;-79
2022/10/08 11:23:50;;;;;;;5.90;1.92;;;15.30;99.90;;;;;;5034960;28;20032;-79
2022/10/08 11:26:21;;;;;;;5.80;2.50;;;15.60;99.90;;;;;;5042176;28;20025;-79
2022/10/08 11:28:59;;;;;;;5.88;2.40;;;15.70;99.90;;;;;;5036865;28;20052;-79
2022/10/08 11:31:43;;;;;;;4.95;2.00;;;15.60;99.90;;;;;;5037649;28;20139;-79
2022/10/08 11:34:31;;;;;;;4.90;1.92;;;15.50;99.90;;;;;;5036913;28;20025;-79
2022/10/08 11:37:28;;;;;;;8.15;2.53;;;15.40;99.90;;;;;;5040492;28;20485;-78
2022/10/08 11:40:09;;;;;;;6.05;2.70;;;15.30;99.90;;;;;;5034310;28;20111;-78
2022/10/08 11:42:38;;;;;;;5.72;2.35;;;15.10;99.90;;;;;;5031741;28;20041;-79
2022/10/08 11:45:22;;;;;;;7.10;2.50;;;14.90;99.90;;;;;;5034226;28;20021;-79
2022/10/08 11:47:50;;;;;;;10.05;2.65;;;14.80;99.90;;;;;;5029362;28;20026;-79
2022/10/08 11:50:37;;;;;;;6.43;2.42;;;14.80;99.90;;;;;;5030766;28;20639;-79
2022/10/08 11:53:09;;;;;;;12.70;5.68;;;14.70;99.90;;;;;;5034431;28;20029;-79
2022/10/08 11:55:35;;;;;;;20.70;8.90;;;14.60;99.90;;;;;;5042484;28;20020;-79
2022/10/08 11:58:04;;;;;;;5.97;3.47;;;14.50;99.90;;;;;;5037608;28;20029;-79
2022/10/08 12:00:35;;;;;;;5.00;2.80;;;14.40;99.90;;;;;;5034791;28;20289;-79
2022/10/08 12:03:04;;;;;;;6.90;2.90;;;14.30;99.90;;;;;;5032009;28;20258;-79
2022/10/08 12:05:46;;;;;;;5.53;3.03;;;14.20;99.90;;;;;;5039064;28;20037;-79
2022/10/08 12:08:48;;;;;;;6.30;3.13;;;14.10;99.90;;;;;;5025504;28;20032;-79
2022/10/08 12:11:36;;;;;;;7.30;2.90;;;14.20;99.90;;;;;;5039415;28;20036;-79
2022/10/08 12:14:11;;;;;;;7.85;3.08;;;;;;;;;;5030372;28;20277;-78
2022/10/08 12:16:55;;;;;;;6.88;2.50;;;;;;;;;;5023633;28;20068;-80
2022/10/08 12:19:34;;;;;;;5.35;2.70;;;;;;;;;;5026825;28;20525;-79
2022/10/08 12:22:00;;;;;;;6.72;2.80;;;;;;;;;;5026931;28;20632;-79
2022/10/08 12:24:38;;;;;;;5.38;2.60;;;;;;;;;;5030872;28;20026;-78
2022/10/08 12:27:24;;;;;;;6.43;2.80;;;13.50;99.90;;;;;;5032989;28;20035;-79
2022/10/08 12:29:53;;;;;;;5.78;2.45;;;13.50;99.90;;;;;;5026012;28;20398;-82
2022/10/08 12:32:20;;;;;;;5.93;2.80;;;13.30;99.90;;;;;;4674297;28;10000209;-82
2022/10/08 12:34:45;;;;;;;8.10;3.15;;;13.20;99.90;;;;;;5026732;28;20242;-82
2022/10/08 12:37:34;;;;;;;7.75;3.10;;;13.10;99.90;;;;;;5038111;28;20029;-82
2022/10/08 12:40:14;;;;;;;7.15;2.90;;;13.10;99.90;;;;;;5022853;28;20533;-82
2022/10/08 12:42:41;;;;;;;5.30;3.35;;;13.10;99.90;;;;;;5025956;28;20047;-83
2022/10/08 12:45:17;;;;;;;8.05;4.13;;;13.40;99.90;;;;;;5030058;28;20036;-83
2022/10/08 12:47:57;;;;;;;5.43;3.75;;;13.80;99.90;;;;;;5034138;28;20023;-82
2022/10/08 12:50:42;;;;;;;5.72;3.20;;;;;;;;;;5026826;28;20029;-81
2022/10/08 12:53:12;;;;;;;5.40;3.30;;;14.60;99.90;;;;;;5027934;28;20273;-80
2022/10/08 12:55:48;;;;;;;6.07;3.00;;;14.90;99.90;;;;;;5037840;28;20113;-83
2022/10/08 12:58:18;;;;;;;5.03;3.10;;;15.20;99.90;;;;;;5031271;28;20072;-84
2022/10/08 13:00:44;;;;;;;5.53;2.80;;;;;;;;;;5026174;28;20344;-84
2022/10/08 13:03:17;;;;;;;6.18;2.80;;;15.50;99.90;;;;;;5025570;28;20481;-83
2022/10/08 13:05:43;;;;;;;6.50;2.70;;;15.70;99.90;;;;;;5026423;28;20037;-85
2022/10/08 13:08:29;;;;;;;5.88;2.50;;;15.70;99.90;;;;;;5027130;28;20063;-85
2022/10/08 13:10:56;;;;;;;10.40;2.92;;;15.80;99.90;;;;;;5025339;28;20013;-84